sensor_id;sensor_type;location;lat;lon;timestamp;P1;durP1;ratioP1;P2;durP2;ratioP2
17955;SDS011;27666;51.498;11.966;2024-03-02T00:00:29;48.03;;;24.57;;
17955;SDS011;27666;51.498;11.966;2024-03-02T00:03:19;46.30;;;23.33;;
17955;SDS011;27666;51.498;11.966;2024-03-02T00:06:07;44.63;;;23.00;;
17955;SDS011;27666;51.498;11.966;2024-03-02T00:08:56;46.60;;;25.40;;
17955;SDS011;27666;51.498;11.966;2024-03-02T00:11:44;42.83;;;22.13;;
17955;SDS011;27666;51.498;11.966;2024-03-02T00:14:31;43.63;;;23.20;;
17955;SDS011;27666;51.498;11.966;2024-03-02T00:17:21;48.77;;;22.63;;
17955;SDS011;27666;51.498;11.966;2024-03-02T00:20:21;48.07;;;23.53;;
17955;SDS011;27666;51.498;11.966;2024-03-02T00:23:10;43.10;;;22.27;;
17955;SDS011;27666;51.498;11.966;2024-03-02T00:26:01;46.23;;;22.33;;
17955;SDS011;27666;51.498;11.966;2024-03-02T00:28:48;48.67;;;24.33;;
17955;SDS011;27666;51.498;11.966;2024-03-02T00:31:35;46.30;;;22.10;;
17955;SDS011;27666;51.498;11.966;2024-03-02T00:34:25;45.93;;;22.83;;
17955;SDS011;27666;51.498;11.966;2024-03-02T00:37:12;46.13;;;22.80;;
17955;SDS011;27666;51.498;11.966;2024-03-02T00:40:03;44.17;;;23.33;;
17955;SDS011;27666;51.498;11.966;2024-03-02T00:42:52;47.57;;;23.13;;
17955;SDS011;27666;51.498;11.966;2024-03-02T00:45:39;45.07;;;21.63;;
17955;SDS011;27666;51.498;11.966;2024-03-02T00:48:28;49.07;;;23.37;;
17955;SDS011;27666;51.498;11.966;2024-03-02T00:51:20;42.77;;;22.10;;
17955;SDS011;27666;51.498;11.966;2024-03-02T00:54:09;49.37;;;22.97;;
17955;SDS011;27666;51.498;11.966;2024-03-02T00:56:58;45.07;;;23.00;;
17955;SDS011;27666;51.498;11.966;2024-03-02T00:59:45;45.43;;;23.17;;
17955;SDS011;27666;51.498;11.966;2024-03-02T01:02:31;47.83;;;24.27;;
17955;SDS011;27666;51.498;11.966;2024-03-02T01:05:17;45.07;;;23.00;;
17955;SDS011;27666;51.498;11.966;2024-03-02T01:08:04;43.47;;;22.43;;
17955;SDS011;27666;51.498;11.966;2024-03-02T01:10:51;42.63;;;22.83;;
17955;SDS011;27666;51.498;11.966;2024-03-02T01:13:39;58.63;;;30.77;;
17955;SDS011;27666;51.498;11.966;2024-03-02T01:16:26;50.63;;;24.60;;
17955;SDS011;27666;51.498;11.966;2024-03-02T01:19:12;47.47;;;22.63;;
17955;SDS011;27666;51.498;11.966;2024-03-02T01:22:00;47.23;;;22.67;;
17955;SDS011;27666;51.498;11.966;2024-03-02T01:24:46;46.93;;;23.27;;
17955;SDS011;27666;51.498;11.966;2024-03-02T01:27:34;53.00;;;24.03;;
17955;SDS011;27666;51.498;11.966;2024-03-02T01:30:22;47.23;;;21.90;;
17955;SDS011;27666;51.498;11.966;2024-03-02T01:33:09;50.10;;;26.53;;
17955;SDS011;27666;51.498;11.966;2024-03-02T01:35:55;47.30;;;22.77;;
17955;SDS011;27666;51.498;11.966;2024-03-02T01:38:41;45.57;;;22.17;;
17955;SDS011;27666;51.498;11.966;2024-03-02T01:41:29;42.00;;;22.90;;
17955;SDS011;27666;51.498;11.966;2024-03-02T01:44:18;49.20;;;24.40;;
17955;SDS011;27666;51.498;11.966;2024-03-02T01:47:08;39.57;;;21.50;;
17955;SDS011;27666;51.498;11.966;2024-03-02T01:49:55;47.03;;;23.07;;
17955;SDS011;27666;51.498;11.966;2024-03-02T01:52:41;41.87;;;23.03;;
17955;SDS011;27666;51.498;11.966;2024-03-02T01:55:29;50.57;;;23.13;;
17955;SDS011;27666;51.498;11.966;2024-03-02T01:58:16;44.40;;;22.07;;
17955;SDS011;27666;51.498;11.966;2024-03-02T02:01:03;37.73;;;20.20;;
17955;SDS011;27666;51.498;11.966;2024-03-02T02:03:51;38.57;;;21.30;;
17955;SDS011;27666;51.498;11.966;2024-03-02T02:06:37;40.63;;;21.63;;
17955;SDS011;27666;51.498;11.966;2024-03-02T02:09:24;46.77;;;22.17;;
17955;SDS011;27666;51.498;11.966;2024-03-02T02:12:10;37.43;;;21.57;;
17955;SDS011;27666;51.498;11.966;2024-03-02T02:14:57;47.40;;;21.30;;
17955;SDS011;27666;51.498;11.966;2024-03-02T02:17:45;38.17;;;21.87;;
17955;SDS011;27666;51.498;11.966;2024-03-02T02:20:33;46.03;;;20.70;;
17955;SDS011;27666;51.498;11.966;2024-03-02T02:23:21;38.23;;;20.40;;
17955;SDS011;27666;51.498;11.966;2024-03-02T02:26:07;43.70;;;21.03;;
17955;SDS011;27666;51.498;11.966;2024-03-02T02:28:54;42.50;;;21.07;;
17955;SDS011;27666;51.498;11.966;2024-03-02T02:31:41;44.20;;;22.87;;
17955;SDS011;27666;51.498;11.966;2024-03-02T02:34:28;45.77;;;21.90;;
17955;SDS011;27666;51.498;11.966;2024-03-02T02:37:14;40.47;;;20.30;;
17955;SDS011;27666;51.498;11.966;2024-03-02T02:40:02;42.37;;;22.67;;
17955;SDS011;27666;51.498;11.966;2024-03-02T02:42:50;44.20;;;21.47;;
17955;SDS011;27666;51.498;11.966;2024-03-02T02:45:37;40.77;;;21.70;;
17955;SDS011;27666;51.498;11.966;2024-03-02T02:48:24;40.13;;;20.10;;
17955;SDS011;27666;51.498;11.966;2024-03-02T02:51:10;37.80;;;20.07;;
17955;SDS011;27666;51.498;11.966;2024-03-02T02:53:59;38.00;;;19.57;;
17955;SDS011;27666;51.498;11.966;2024-03-02T02:56:47;41.53;;;19.93;;
17955;SDS011;27666;51.498;11.966;2024-03-02T02:59:35;40.17;;;20.80;;
17955;SDS011;27666;51.498;11.966;2024-03-02T03:02:21;39.87;;;20.27;;
17955;SDS011;27666;51.498;11.966;2024-03-02T03:05:08;36.60;;;19.67;;
17955;SDS011;27666;51.498;11.966;2024-03-02T03:07:56;39.30;;;19.47;;
17955;SDS011;27666;51.498;11.966;2024-03-02T03:10:42;35.77;;;19.10;;
17955;SDS011;27666;51.498;11.966;2024-03-02T03:13:30;35.63;;;20.77;;
17955;SDS011;27666;51.498;11.966;2024-03-02T03:16:17;40.20;;;20.27;;
17955;SDS011;27666;51.498;11.966;2024-03-02T03:19:03;41.17;;;21.23;;
17955;SDS011;27666;51.498;11.966;2024-03-02T03:21:50;36.30;;;19.07;;
17955;SDS011;27666;51.498;11.966;2024-03-02T03:24:36;38.70;;;21.43;;
17955;SDS011;27666;51.498;11.966;2024-03-02T03:27:25;35.20;;;20.33;;
17955;SDS011;27666;51.498;11.966;2024-03-02T03:30:13;45.90;;;21.47;;
17955;SDS011;27666;51.498;11.966;2024-03-02T03:33:00;40.80;;;21.23;;
17955;SDS011;27666;51.498;11.966;2024-03-02T03:35:47;39.50;;;20.80;;
17955;SDS011;27666;51.498;11.966;2024-03-02T03:38:33;38.17;;;19.67;;
17955;SDS011;27666;51.498;11.966;2024-03-02T03:41:20;39.93;;;21.63;;
17955;SDS011;27666;51.498;11.966;2024-03-02T03:44:06;38.67;;;20.07;;
17955;SDS011;27666;51.498;11.966;2024-03-02T03:46:54;34.90;;;19.90;;
17955;SDS011;27666;51.498;11.966;2024-03-02T03:49:41;38.40;;;20.93;;
17955;SDS011;27666;51.498;11.966;2024-03-02T03:52:28;41.03;;;20.33;;
17955;SDS011;27666;51.498;11.966;2024-03-02T03:55:15;35.73;;;18.90;;
17955;SDS011;27666;51.498;11.966;2024-03-02T03:58:01;39.60;;;20.63;;
17955;SDS011;27666;51.498;11.966;2024-03-02T04:00:48;41.13;;;19.43;;
17955;SDS011;27666;51.498;11.966;2024-03-02T04:03:36;40.00;;;19.27;;
17955;SDS011;27666;51.498;11.966;2024-03-02T04:06:23;36.30;;;18.93;;
17955;SDS011;27666;51.498;11.966;2024-03-02T04:09:10;38.33;;;19.37;;
17955;SDS011;27666;51.498;11.966;2024-03-02T04:11:57;34.57;;;19.57;;
17955;SDS011;27666;51.498;11.966;2024-03-02T04:14:43;38.77;;;19.00;;
17955;SDS011;27666;51.498;11.966;2024-03-02T04:17:31;36.73;;;19.20;;
17955;SDS011;27666;51.498;11.966;2024-03-02T04:20:19;36.37;;;19.87;;
17955;SDS011;27666;51.498;11.966;2024-03-02T04:23:06;36.03;;;19.57;;
17955;SDS011;27666;51.498;11.966;2024-03-02T04:25:52;39.57;;;20.03;;
17955;SDS011;27666;51.498;11.966;2024-03-02T04:28:39;32.40;;;18.53;;
17955;SDS011;27666;51.498;11.966;2024-03-02T04:31:25;32.20;;;17.47;;
17955;SDS011;27666;51.498;11.966;2024-03-02T04:34:12;33.83;;;18.73;;
17955;SDS011;27666;51.498;11.966;2024-03-02T04:37:00;31.70;;;17.70;;
17955;SDS011;27666;51.498;11.966;2024-03-02T04:39:46;33.57;;;16.40;;
17955;SDS011;27666;51.498;11.966;2024-03-02T04:42:33;28.33;;;16.50;;
17955;SDS011;27666;51.498;11.966;2024-03-02T04:45:19;30.30;;;17.17;;
17955;SDS011;27666;51.498;11.966;2024-03-02T04:48:06;29.67;;;15.90;;
17955;SDS011;27666;51.498;11.966;2024-03-02T04:50:53;47.17;;;24.17;;
17955;SDS011;27666;51.498;11.966;2024-03-02T04:53:41;29.93;;;16.90;;
17955;SDS011;27666;51.498;11.966;2024-03-02T04:56:27;27.17;;;15.13;;
17955;SDS011;27666;51.498;11.966;2024-03-02T04:59:28;25.37;;;15.60;;
17955;SDS011;27666;51.498;11.966;2024-03-02T05:02:15;28.47;;;15.10;;
17955;SDS011;27666;51.498;11.966;2024-03-02T05:05:02;24.63;;;14.97;;
17955;SDS011;27666;51.498;11.966;2024-03-02T05:07:48;30.60;;;14.80;;
17955;SDS011;27666;51.498;11.966;2024-03-02T05:10:36;28.23;;;14.83;;
17955;SDS011;27666;51.498;11.966;2024-03-02T05:13:23;27.67;;;14.57;;
17955;SDS011;27666;51.498;11.966;2024-03-02T05:16:09;27.37;;;14.70;;
17955;SDS011;27666;51.498;11.966;2024-03-02T05:18:56;26.23;;;14.20;;
17955;SDS011;27666;51.498;11.966;2024-03-02T05:21:43;23.87;;;13.60;;
17955;SDS011;27666;51.498;11.966;2024-03-02T05:24:29;24.47;;;13.73;;
17955;SDS011;27666;51.498;11.966;2024-03-02T05:27:19;24.17;;;13.43;;
17955;SDS011;27666;51.498;11.966;2024-03-02T05:30:06;24.03;;;14.47;;
17955;SDS011;27666;51.498;11.966;2024-03-02T05:32:53;26.77;;;14.17;;
17955;SDS011;27666;51.498;11.966;2024-03-02T05:35:40;27.87;;;13.67;;
17955;SDS011;27666;51.498;11.966;2024-03-02T05:38:26;27.73;;;13.73;;
17955;SDS011;27666;51.498;11.966;2024-03-02T05:41:13;26.03;;;14.40;;
17955;SDS011;27666;51.498;11.966;2024-03-02T05:44:01;29.97;;;14.67;;
17955;SDS011;27666;51.498;11.966;2024-03-02T05:46:47;28.27;;;14.73;;
17955;SDS011;27666;51.498;11.966;2024-03-02T05:49:34;26.10;;;14.23;;
17955;SDS011;27666;51.498;11.966;2024-03-02T05:52:21;23.37;;;13.47;;
17955;SDS011;27666;51.498;11.966;2024-03-02T05:55:08;24.77;;;13.13;;
17955;SDS011;27666;51.498;11.966;2024-03-02T05:57:54;27.37;;;15.10;;
17955;SDS011;27666;51.498;11.966;2024-03-02T06:00:57;23.50;;;14.03;;
17955;SDS011;27666;51.498;11.966;2024-03-02T06:03:44;24.27;;;13.80;;
17955;SDS011;27666;51.498;11.966;2024-03-02T06:06:31;28.17;;;15.47;;
17955;SDS011;27666;51.498;11.966;2024-03-02T06:09:18;26.50;;;14.70;;
17955;SDS011;27666;51.498;11.966;2024-03-02T06:12:05;23.13;;;13.50;;
17955;SDS011;27666;51.498;11.966;2024-03-02T06:14:51;25.27;;;13.80;;
17955;SDS011;27666;51.498;11.966;2024-03-02T06:17:39;30.03;;;14.23;;
17955;SDS011;27666;51.498;11.966;2024-03-02T06:20:26;25.50;;;14.40;;
17955;SDS011;27666;51.498;11.966;2024-03-02T06:23:19;22.47;;;13.90;;
17955;SDS011;27666;51.498;11.966;2024-03-02T06:26:06;25.73;;;14.43;;
17955;SDS011;27666;51.498;11.966;2024-03-02T06:28:52;28.10;;;15.23;;
17955;SDS011;27666;51.498;11.966;2024-03-02T06:31:41;26.37;;;14.67;;
17955;SDS011;27666;51.498;11.966;2024-03-02T06:34:29;92.00;;;44.90;;
17955;SDS011;27666;51.498;11.966;2024-03-02T06:37:15;27.27;;;15.90;;
17955;SDS011;27666;51.498;11.966;2024-03-02T06:40:02;24.23;;;14.60;;
17955;SDS011;27666;51.498;11.966;2024-03-02T06:42:48;26.33;;;14.07;;
17955;SDS011;27666;51.498;11.966;2024-03-02T06:45:35;25.20;;;13.93;;
17955;SDS011;27666;51.498;11.966;2024-03-02T06:48:21;24.27;;;14.17;;
17955;SDS011;27666;51.498;11.966;2024-03-02T06:51:10;26.30;;;15.33;;
17955;SDS011;27666;51.498;11.966;2024-03-02T06:53:57;25.73;;;14.77;;
17955;SDS011;27666;51.498;11.966;2024-03-02T06:56:43;30.13;;;16.40;;
17955;SDS011;27666;51.498;11.966;2024-03-02T06:59:30;25.83;;;15.07;;
17955;SDS011;27666;51.498;11.966;2024-03-02T07:02:18;30.03;;;15.20;;
17955;SDS011;27666;51.498;11.966;2024-03-02T07:05:05;28.13;;;15.97;;
17955;SDS011;27666;51.498;11.966;2024-03-02T07:07:53;27.63;;;15.73;;
17955;SDS011;27666;51.498;11.966;2024-03-02T07:10:40;31.53;;;17.00;;
17955;SDS011;27666;51.498;11.966;2024-03-02T07:13:26;30.10;;;16.50;;
17955;SDS011;27666;51.498;11.966;2024-03-02T07:16:13;30.60;;;17.23;;
17955;SDS011;27666;51.498;11.966;2024-03-02T07:19:12;32.53;;;18.50;;
17955;SDS011;27666;51.498;11.966;2024-03-02T07:21:59;34.63;;;18.33;;
17955;SDS011;27666;51.498;11.966;2024-03-02T07:24:48;32.50;;;17.67;;
17955;SDS011;27666;51.498;11.966;2024-03-02T07:27:35;32.37;;;17.97;;
17955;SDS011;27666;51.498;11.966;2024-03-02T07:30:21;33.00;;;16.57;;
17955;SDS011;27666;51.498;11.966;2024-03-02T07:33:08;34.73;;;17.07;;
17955;SDS011;27666;51.498;11.966;2024-03-02T07:35:54;35.03;;;16.90;;
17955;SDS011;27666;51.498;11.966;2024-03-02T07:38:42;32.17;;;15.77;;
17955;SDS011;27666;51.498;11.966;2024-03-02T07:41:30;27.47;;;15.00;;
17955;SDS011;27666;51.498;11.966;2024-03-02T07:44:17;29.87;;;15.67;;
17955;SDS011;27666;51.498;11.966;2024-03-02T07:47:05;26.13;;;14.57;;
17955;SDS011;27666;51.498;11.966;2024-03-02T07:49:52;32.53;;;15.70;;
17955;SDS011;27666;51.498;11.966;2024-03-02T07:52:39;34.67;;;19.57;;
17955;SDS011;27666;51.498;11.966;2024-03-02T07:55:26;33.60;;;16.90;;
17955;SDS011;27666;51.498;11.966;2024-03-02T07:58:13;29.63;;;15.60;;
17955;SDS011;27666;51.498;11.966;2024-03-02T08:01:00;28.30;;;15.60;;
17955;SDS011;27666;51.498;11.966;2024-03-02T08:03:47;35.57;;;17.30;;
17955;SDS011;27666;51.498;11.966;2024-03-02T08:06:35;41.03;;;17.97;;
17955;SDS011;27666;51.498;11.966;2024-03-02T08:09:22;36.30;;;17.37;;
17955;SDS011;27666;51.498;11.966;2024-03-02T08:12:09;33.43;;;16.53;;
17955;SDS011;27666;51.498;11.966;2024-03-02T08:14:56;34.27;;;18.20;;
17955;SDS011;27666;51.498;11.966;2024-03-02T08:17:43;32.77;;;17.10;;
17955;SDS011;27666;51.498;11.966;2024-03-02T08:20:33;34.70;;;17.73;;
17955;SDS011;27666;51.498;11.966;2024-03-02T08:23:21;30.60;;;17.13;;
17955;SDS011;27666;51.498;11.966;2024-03-02T08:26:07;32.53;;;16.73;;
17955;SDS011;27666;51.498;11.966;2024-03-02T08:28:54;34.80;;;17.30;;
17955;SDS011;27666;51.498;11.966;2024-03-02T08:31:42;27.20;;;15.83;;
17955;SDS011;27666;51.498;11.966;2024-03-02T08:34:28;30.83;;;17.13;;
17955;SDS011;27666;51.498;11.966;2024-03-02T08:37:15;30.13;;;17.60;;
17955;SDS011;27666;51.498;11.966;2024-03-02T08:40:02;29.83;;;16.50;;
17955;SDS011;27666;51.498;11.966;2024-03-02T08:42:52;33.20;;;16.63;;
17955;SDS011;27666;51.498;11.966;2024-03-02T08:45:38;30.37;;;16.67;;
17955;SDS011;27666;51.498;11.966;2024-03-02T08:48:27;32.93;;;16.73;;
17955;SDS011;27666;51.498;11.966;2024-03-02T08:51:14;35.77;;;16.63;;
17955;SDS011;27666;51.498;11.966;2024-03-02T08:54:00;33.23;;;17.50;;
17955;SDS011;27666;51.498;11.966;2024-03-02T08:56:49;35.30;;;16.77;;
17955;SDS011;27666;51.498;11.966;2024-03-02T08:59:36;32.03;;;16.63;;
17955;SDS011;27666;51.498;11.966;2024-03-02T09:02:22;33.90;;;17.27;;
17955;SDS011;27666;51.498;11.966;2024-03-02T09:05:11;32.70;;;17.40;;
17955;SDS011;27666;51.498;11.966;2024-03-02T09:07:57;30.67;;;16.30;;
17955;SDS011;27666;51.498;11.966;2024-03-02T09:10:44;31.63;;;17.20;;
17955;SDS011;27666;51.498;11.966;2024-03-02T09:13:31;30.90;;;16.63;;
17955;SDS011;27666;51.498;11.966;2024-03-02T09:16:18;37.17;;;17.80;;
17955;SDS011;27666;51.498;11.966;2024-03-02T09:19:04;28.20;;;15.27;;
17955;SDS011;27666;51.498;11.966;2024-03-02T09:21:52;34.30;;;17.53;;
17955;SDS011;27666;51.498;11.966;2024-03-02T09:24:40;30.90;;;16.43;;
17955;SDS011;27666;51.498;11.966;2024-03-02T09:27:26;32.77;;;16.53;;
17955;SDS011;27666;51.498;11.966;2024-03-02T09:30:13;32.57;;;17.10;;
17955;SDS011;27666;51.498;11.966;2024-03-02T09:33:00;30.27;;;16.67;;
17955;SDS011;27666;51.498;11.966;2024-03-02T09:35:49;31.07;;;16.60;;
17955;SDS011;27666;51.498;11.966;2024-03-02T09:38:40;30.23;;;15.93;;
17955;SDS011;27666;51.498;11.966;2024-03-02T09:41:27;34.57;;;16.17;;
17955;SDS011;27666;51.498;11.966;2024-03-02T09:44:14;29.60;;;15.80;;
17955;SDS011;27666;51.498;11.966;2024-03-02T09:47:00;33.33;;;15.90;;
17955;SDS011;27666;51.498;11.966;2024-03-02T09:49:47;31.87;;;16.67;;
17955;SDS011;27666;51.498;11.966;2024-03-02T09:52:34;27.80;;;14.90;;
17955;SDS011;27666;51.498;11.966;2024-03-02T09:55:24;29.00;;;15.20;;
17955;SDS011;27666;51.498;11.966;2024-03-02T09:58:11;30.37;;;16.40;;
17955;SDS011;27666;51.498;11.966;2024-03-02T10:00:57;27.00;;;15.30;;
17955;SDS011;27666;51.498;11.966;2024-03-02T10:03:44;29.13;;;15.27;;
17955;SDS011;27666;51.498;11.966;2024-03-02T10:06:34;31.00;;;14.73;;
17955;SDS011;27666;51.498;11.966;2024-03-02T10:09:26;26.50;;;14.67;;
17955;SDS011;27666;51.498;11.966;2024-03-02T10:12:16;27.83;;;14.70;;
17955;SDS011;27666;51.498;11.966;2024-03-02T10:15:03;26.30;;;14.90;;
17955;SDS011;27666;51.498;11.966;2024-03-02T10:17:52;25.80;;;14.47;;
17955;SDS011;27666;51.498;11.966;2024-03-02T10:20:39;29.07;;;14.17;;
17955;SDS011;27666;51.498;11.966;2024-03-02T10:23:26;25.57;;;13.20;;
17955;SDS011;27666;51.498;11.966;2024-03-02T10:26:16;26.07;;;14.07;;
17955;SDS011;27666;51.498;11.966;2024-03-02T10:29:04;26.73;;;15.07;;
17955;SDS011;27666;51.498;11.966;2024-03-02T10:31:51;29.40;;;15.10;;
17955;SDS011;27666;51.498;11.966;2024-03-02T10:34:37;29.20;;;14.60;;
17955;SDS011;27666;51.498;11.966;2024-03-02T10:37:25;24.43;;;13.93;;
17955;SDS011;27666;51.498;11.966;2024-03-02T10:40:12;26.55;;;14.18;;
17955;SDS011;27666;51.498;11.966;2024-03-02T10:43:00;22.33;;;13.95;;
17955;SDS011;27666;51.498;11.966;2024-03-02T10:45:52;22.37;;;13.40;;
17955;SDS011;27666;51.498;11.966;2024-03-02T10:48:40;25.30;;;13.75;;
17955;SDS011;27666;51.498;11.966;2024-03-02T10:51:30;25.65;;;14.35;;
17955;SDS011;27666;51.498;11.966;2024-03-02T10:54:17;24.77;;;14.30;;
17955;SDS011;27666;51.498;11.966;2024-03-02T10:57:11;25.38;;;12.95;;
17955;SDS011;27666;51.498;11.966;2024-03-02T11:00:02;23.70;;;13.93;;
17955;SDS011;27666;51.498;11.966;2024-03-02T11:02:51;25.37;;;13.30;;
17955;SDS011;27666;51.498;11.966;2024-03-02T11:05:43;25.02;;;12.70;;
17955;SDS011;27666;51.498;11.966;2024-03-02T11:08:30;22.25;;;13.75;;
17955;SDS011;27666;51.498;11.966;2024-03-02T11:11:18;22.15;;;13.02;;
17955;SDS011;27666;51.498;11.966;2024-03-02T11:14:12;23.98;;;12.45;;
17955;SDS011;27666;51.498;11.966;2024-03-02T11:17:02;20.52;;;12.45;;
17955;SDS011;27666;51.498;11.966;2024-03-02T11:19:51;23.67;;;12.98;;
17955;SDS011;27666;51.498;11.966;2024-03-02T11:22:38;21.23;;;12.27;;
17955;SDS011;27666;51.498;11.966;2024-03-02T11:25:25;26.07;;;13.77;;
17955;SDS011;27666;51.498;11.966;2024-03-02T11:28:12;24.02;;;12.82;;
17955;SDS011;27666;51.498;11.966;2024-03-02T11:30:59;23.60;;;12.47;;
17955;SDS011;27666;51.498;11.966;2024-03-02T11:33:45;24.75;;;13.70;;
17955;SDS011;27666;51.498;11.966;2024-03-02T11:36:33;22.50;;;12.93;;
17955;SDS011;27666;51.498;11.966;2024-03-02T11:39:21;23.17;;;13.43;;
17955;SDS011;27666;51.498;11.966;2024-03-02T11:42:07;21.23;;;12.32;;
17955;SDS011;27666;51.498;11.966;2024-03-02T11:44:55;41.20;;;20.23;;
17955;SDS011;27666;51.498;11.966;2024-03-02T11:47:45;26.45;;;13.10;;
17955;SDS011;27666;51.498;11.966;2024-03-02T11:50:36;22.52;;;12.75;;
17955;SDS011;27666;51.498;11.966;2024-03-02T11:53:28;21.50;;;12.83;;
17955;SDS011;27666;51.498;11.966;2024-03-02T11:56:17;20.95;;;12.40;;
17955;SDS011;27666;51.498;11.966;2024-03-02T11:59:05;21.35;;;12.35;;
17955;SDS011;27666;51.498;11.966;2024-03-02T12:01:53;22.15;;;11.65;;
17955;SDS011;27666;51.498;11.966;2024-03-02T12:04:40;20.40;;;11.87;;
17955;SDS011;27666;51.498;11.966;2024-03-02T12:07:29;19.03;;;11.37;;
17955;SDS011;27666;51.498;11.966;2024-03-02T12:10:17;21.67;;;11.37;;
17955;SDS011;27666;51.498;11.966;2024-03-02T12:13:04;18.67;;;10.70;;
17955;SDS011;27666;51.498;11.966;2024-03-02T12:15:53;17.23;;;10.00;;
17955;SDS011;27666;51.498;11.966;2024-03-02T12:18:41;18.40;;;10.87;;
17955;SDS011;27666;51.498;11.966;2024-03-02T12:21:28;16.17;;;9.80;;
17955;SDS011;27666;51.498;11.966;2024-03-02T12:24:15;15.80;;;9.60;;
17955;SDS011;27666;51.498;11.966;2024-03-02T12:27:03;19.33;;;9.97;;
17955;SDS011;27666;51.498;11.966;2024-03-02T12:29:52;17.47;;;10.33;;
17955;SDS011;27666;51.498;11.966;2024-03-02T12:32:40;18.70;;;10.63;;
17955;SDS011;27666;51.498;11.966;2024-03-02T12:35:27;17.23;;;10.03;;
17955;SDS011;27666;51.498;11.966;2024-03-02T12:38:13;18.48;;;10.02;;
17955;SDS011;27666;51.498;11.966;2024-03-02T12:41:00;19.67;;;9.93;;
17955;SDS011;27666;51.498;11.966;2024-03-02T12:43:48;17.33;;;10.10;;
17955;SDS011;27666;51.498;11.966;2024-03-02T12:46:35;16.17;;;10.60;;
17955;SDS011;27666;51.498;11.966;2024-03-02T12:49:22;17.23;;;9.73;;
17955;SDS011;27666;51.498;11.966;2024-03-02T12:52:11;14.13;;;8.73;;
17955;SDS011;27666;51.498;11.966;2024-03-02T12:54:58;16.37;;;9.20;;
17955;SDS011;27666;51.498;11.966;2024-03-02T12:57:49;17.85;;;10.20;;
17955;SDS011;27666;51.498;11.966;2024-03-02T13:00:37;16.83;;;9.10;;
17955;SDS011;27666;51.498;11.966;2024-03-02T13:03:25;16.42;;;9.48;;
17955;SDS011;27666;51.498;11.966;2024-03-02T13:06:11;14.00;;;8.50;;
17955;SDS011;27666;51.498;11.966;2024-03-02T13:08:58;16.73;;;9.82;;
17955;SDS011;27666;51.498;11.966;2024-03-02T13:11:45;13.27;;;9.17;;
17955;SDS011;27666;51.498;11.966;2024-03-02T13:14:32;13.98;;;8.57;;
17955;SDS011;27666;51.498;11.966;2024-03-02T13:17:20;14.50;;;8.63;;
17955;SDS011;27666;51.498;11.966;2024-03-02T13:20:06;15.93;;;8.70;;
17955;SDS011;27666;51.498;11.966;2024-03-02T13:22:56;13.98;;;8.00;;
17955;SDS011;27666;51.498;11.966;2024-03-02T13:25:42;13.90;;;8.05;;
17955;SDS011;27666;51.498;11.966;2024-03-02T13:28:29;17.33;;;8.43;;
17955;SDS011;27666;51.498;11.966;2024-03-02T13:31:15;12.63;;;7.57;;
17955;SDS011;27666;51.498;11.966;2024-03-02T13:34:03;16.65;;;8.18;;
17955;SDS011;27666;51.498;11.966;2024-03-02T13:36:49;13.07;;;7.28;;
17955;SDS011;27666;51.498;11.966;2024-03-02T13:39:36;14.95;;;7.68;;
17955;SDS011;27666;51.498;11.966;2024-03-02T13:42:27;15.35;;;7.60;;
17955;SDS011;27666;51.498;11.966;2024-03-02T13:45:13;13.27;;;7.80;;
17955;SDS011;27666;51.498;11.966;2024-03-02T13:48:00;13.40;;;7.50;;
17955;SDS011;27666;51.498;11.966;2024-03-02T13:50:49;11.23;;;7.28;;
17955;SDS011;27666;51.498;11.966;2024-03-02T13:53:35;11.60;;;6.95;;
17955;SDS011;27666;51.498;11.966;2024-03-02T13:56:22;9.25;;;6.43;;
17955;SDS011;27666;51.498;11.966;2024-03-02T13:59:08;8.88;;;5.97;;
17955;SDS011;27666;51.498;11.966;2024-03-02T14:01:54;10.25;;;7.22;;
17955;SDS011;27666;51.498;11.966;2024-03-02T14:04:41;13.27;;;7.43;;
17955;SDS011;27666;51.498;11.966;2024-03-02T14:07:29;12.40;;;8.32;;
17955;SDS011;27666;51.498;11.966;2024-03-02T14:10:15;14.68;;;8.27;;
17955;SDS011;27666;51.498;11.966;2024-03-02T14:13:07;12.48;;;7.30;;
17955;SDS011;27666;51.498;11.966;2024-03-02T14:15:53;10.32;;;6.63;;
17955;SDS011;27666;51.498;11.966;2024-03-02T14:18:40;12.05;;;6.78;;
17955;SDS011;27666;51.498;11.966;2024-03-02T14:21:27;10.75;;;6.20;;
17955;SDS011;27666;51.498;11.966;2024-03-02T14:24:15;10.32;;;6.00;;
17955;SDS011;27666;51.498;11.966;2024-03-02T14:27:01;11.73;;;6.68;;
17955;SDS011;27666;51.498;11.966;2024-03-02T14:30:04;10.48;;;6.50;;
17955;SDS011;27666;51.498;11.966;2024-03-02T14:32:53;10.10;;;6.28;;
17955;SDS011;27666;51.498;11.966;2024-03-02T14:35:39;10.93;;;6.20;;
17955;SDS011;27666;51.498;11.966;2024-03-02T14:38:26;10.25;;;6.63;;
17955;SDS011;27666;51.498;11.966;2024-03-02T14:41:15;11.43;;;6.63;;
17955;SDS011;27666;51.498;11.966;2024-03-02T14:44:01;10.85;;;6.70;;
17955;SDS011;27666;51.498;11.966;2024-03-02T14:46:49;11.68;;;7.13;;
17955;SDS011;27666;51.498;11.966;2024-03-02T14:49:35;12.18;;;6.72;;
17955;SDS011;27666;51.498;11.966;2024-03-02T14:52:25;10.50;;;6.45;;
17955;SDS011;27666;51.498;11.966;2024-03-02T14:55:11;10.90;;;7.65;;
17955;SDS011;27666;51.498;11.966;2024-03-02T14:58:00;14.60;;;7.72;;
17955;SDS011;27666;51.498;11.966;2024-03-02T15:00:46;13.27;;;7.32;;
17955;SDS011;27666;51.498;11.966;2024-03-02T15:03:33;14.02;;;7.18;;
17955;SDS011;27666;51.498;11.966;2024-03-02T15:06:20;11.48;;;7.05;;
17955;SDS011;27666;51.498;11.966;2024-03-02T15:09:07;11.75;;;7.70;;
17955;SDS011;27666;51.498;11.966;2024-03-02T15:11:54;9.90;;;7.28;;
17955;SDS011;27666;51.498;11.966;2024-03-02T15:14:41;10.60;;;7.00;;
17955;SDS011;27666;51.498;11.966;2024-03-02T15:17:30;8.73;;;6.15;;
17955;SDS011;27666;51.498;11.966;2024-03-02T15:20:16;11.63;;;6.32;;
17955;SDS011;27666;51.498;11.966;2024-03-02T15:23:03;10.77;;;6.72;;
17955;SDS011;27666;51.498;11.966;2024-03-02T15:25:50;8.57;;;6.03;;
17955;SDS011;27666;51.498;11.966;2024-03-02T15:28:36;13.05;;;5.95;;
17955;SDS011;27666;51.498;11.966;2024-03-02T15:31:25;8.35;;;6.07;;
17955;SDS011;27666;51.498;11.966;2024-03-02T15:34:11;9.40;;;5.68;;
17955;SDS011;27666;51.498;11.966;2024-03-02T15:36:58;9.63;;;6.90;;
17955;SDS011;27666;51.498;11.966;2024-03-02T15:39:45;10.15;;;6.60;;
17955;SDS011;27666;51.498;11.966;2024-03-02T15:42:31;10.02;;;6.05;;
17955;SDS011;27666;51.498;11.966;2024-03-02T15:45:18;10.68;;;6.35;;
17955;SDS011;27666;51.498;11.966;2024-03-02T15:48:06;9.45;;;5.90;;
17955;SDS011;27666;51.498;11.966;2024-03-02T15:50:53;9.52;;;6.82;;
17955;SDS011;27666;51.498;11.966;2024-03-02T15:53:40;10.07;;;6.05;;
17955;SDS011;27666;51.498;11.966;2024-03-02T15:56:27;11.50;;;6.25;;
17955;SDS011;27666;51.498;11.966;2024-03-02T15:59:13;8.27;;;5.28;;
17955;SDS011;27666;51.498;11.966;2024-03-02T16:02:00;10.23;;;6.63;;
17955;SDS011;27666;51.498;11.966;2024-03-02T16:04:48;13.80;;;6.20;;
17955;SDS011;27666;51.498;11.966;2024-03-02T16:07:34;10.50;;;6.43;;